CheckWX is a tool to help pilots better visualize weather data.  It is not intended as a substitute for an official pre-flight weather briefing.

05:04:39 UTC

CYBK TAF
Baker Lake Airport
Baker Lake, Canada
TAF AMD CYBK 230215Z 2302/2312 32035G45KT 1/4SM IC +BLSN SCT006 FM230300 33035G48KT 1/8SM IC +BLSN VV002 TEMPO 2303/2312 1/4SM +BLSN SCT002 RMK NXT FCST BY 230600Z

Mar-23@
02:00 UTC

Mar-23 @ 02:00 UTC

Mar-23@
03:00 UTC

Mar-23 @ 03:00 UTC

TAF AMD CYBK 230215Z 2302/2312 32035G45KT 1/4SM IC +BLSN SCT006

Expired

Wind
  • 320° at 35 KTS
  • {Gusting to 45 KTS
Conditions
Ice crystals, Heavy Blowing Heavy Snow
Cloud Levels
  • Scattered at 600' AGL

Mar-23@
03:00 UTC

Mar-23 @ 03:00 UTC

Mar-23@
12:00 UTC

Mar-23 @ 12:00 UTC

FM230300 33035G48KT 1/8SM IC +BLSN VV002

From

From Standard forecast or significant change

Wind
  • 330° at 35 KTS
  • {Gusting to 48 KTS
Conditions
Ice crystals, Heavy Blowing Heavy Snow
Cloud Levels
  • Vertical visibility at 200' AGL

Mar-23@
03:00 UTC

Mar-23 @ 03:00 UTC

Mar-23@
12:00 UTC

Mar-23 @ 12:00 UTC

TEMPO 2303/2312 1/4SM +BLSN SCT002 RMK NXT FCST BY 230600Z

Temporary

Temporary Changes expected for less than half the time period

Conditions
Heavy Blowing Heavy Snow
Cloud Levels
  • Scattered at 200' AGL